Contoocook, New Hampshire
Current Conditions -  °F | °C
As of 11:51 PM on Wednesday 22 Oct 2014 (Local Time) from KCON Reporting Station
Light Rain Light Rain  
Wind Chill: 42°   Ceiling: 1300
Heat Index: 47°   Visibility: 9mi
Dew Point: 45°   Wind: 10mph
Humidity: 93%   Direction: 20°NNE
Pressure: 29.92"   Gusts: 22mph
Location:  43.22°N, 71.71°W
Report Text: KCON 230351Z AUTO 02009G19KT 9SM -RA OVC013 08/07 A2992 RMK AO2 SLP134 P0001 T00830072
Loading
Personal Weather Stations






























Interactive Weather Map
Tropical Storm Tracking
New forecast layout! Learn more

10-Day Weather Forecast

Advertisements
Track Severe Weather on mobile